Data for 12/17/2007

Time Sea-Level Adjusted Pressure Absolute Pressure Temperature Relative Humidity Dew Point   
(mb) (inHg) (mb) (inHg) (C) (F) (%) (C) (F)
00:05 1010 29.83 839 24.78 -5 23 63 -11 12.3
00:10 1010 29.83 839 24.78 -5.1 22.9 63 -11 12.2
00:15 1010 29.83 839 24.78 -4.9 23.1 62 -11 12.1
00:20 1010 29.83 839 24.78 -4.7 23.5 62 -11 12.3
00:25 1009 29.8 839 24.78 -4.6 23.7 62 -10.8 12.5
00:30 1009 29.8 839 24.78 -4.5 24 61 -10.9 12.5
00:35 1009 29.8 839 24.78 -4.4 24.1 61 -10.8 12.5
00:40 1009 29.8 838 24.75 -4.2 24.4 61 -10.8 12.6
00:45 1009 29.8 838 24.75 -4.4 24.2 61 -10.7 12.7
00:50 1009 29.8 838 24.75 -4.3 24.3 61 -10.7 12.7
00:55 1009 29.8 838 24.75 -4.2 24.5 61 -10.6 12.9
01:00 1009 29.8 838 24.75 -4.1 24.5 61 -10.6 13
01:05 1009 29.8 838 24.75 -3.9 24.9 61 -10.5 13.2
01:10 1009 29.8 838 24.75 -4.1 24.6 61 -10.6 13
01:15 1009 29.8 838 24.75 -4.3 24.2 62 -10.6 12.9
01:20 1009 29.8 838 24.75 -4.2 24.5 60 -10.8 12.6
01:25 1009 29.8 838 24.75 -4 24.8 60 -10.7 12.7
01:30 1009 29.8 838 24.75 -4 24.7 60 -10.6 12.9
01:35 1009 29.8 838 24.75 -4.2 24.4 60 -10.9 12.3
01:40 1009 29.8 838 24.75 -4.2 24.5 60 -10.7 12.7
01:45 1009 29.8 838 24.75 -4.1 24.6 61 -10.6 12.9
01:50 1009 29.8 838 24.75 -4.3 24.3 61 -10.6 12.8
01:55 1009 29.8 838 24.75 -4.3 24.3 62 -10.5 13.1
02:00 1009 29.8 838 24.75 -4.1 24.6 61 -10.5 13.1
02:05 1009 29.8 838 24.75 -4 24.9 62 -10.3 13.5
02:10 1009 29.8 838 24.75 -4 24.9 61 -10.3 13.4
02:15 1009 29.8 838 24.75 -4 24.9 62 -10.3 13.5
02:20 1009 29.8 838 24.75 -3.9 25 62 -10.2 13.7
02:25 1009 29.8 838 24.75 -3.9 25 61 -10.3 13.5
02:30 1009 29.8 838 24.75 -3.7 25.4 60 -10.4 13.4
02:35 1009 29.8 838 24.75 -3.5 25.7 60 -10.1 13.7
02:40 1009 29.8 838 24.75 -3.7 25.3 62 -10 14
02:45 1009 29.8 838 24.75 -3.9 25 62 -10.2 13.7
02:50 1008 29.77 838 24.75 -3.9 25 62 -10.2 13.6
02:55 1008 29.77 838 24.75 -3.7 25.3 61 -10.2 13.7
03:00 1008 29.77 838 24.75 -4.3 24.2 63 -10.3 13.5
03:05 1008 29.77 838 24.75 -4.7 23.6 65 -10.4 13.3
03:10 1008 29.77 837 24.72 -4.7 23.5 65 -10.4 13.3
03:15 1008 29.77 837 24.72 -4.9 23.3 66 -10.3 13.5
03:20 1008 29.77 837 24.72 -4.5 23.9 64 -10.4 13.3
03:25 1008 29.77 837 24.72 -4.1 24.6 62 -10.3 13.5
03:30 1008 29.77 837 24.72 -4 24.8 62 -10.2 13.6
03:35 1008 29.77 837 24.72 -4.1 24.7 62 -10.2 13.6
03:40 1008 29.77 837 24.72 -3.9 25 61 -10.4 13.3
03:45 1008 29.77 837 24.72 -3.4 25.8 59 -10.4 13.3
03:50 1008 29.77 837 24.72 -3.4 25.8 60 -10.1 13.8
03:55 1008 29.77 837 24.72 -3.7 25.3 61 -10.2 13.6
04:00 1008 29.77 837 24.72 -4 24.8 62 -10.3 13.4
04:05 1008 29.77 837 24.72 -4.2 24.4 62 -10.4 13.3
04:10 1008 29.77 837 24.72 -4.3 24.2 64 -10.2 13.6
04:15 1008 29.77 837 24.72 -4.2 24.4 62 -10.3 13.4
04:20 1008 29.77 837 24.72 -4.3 24.2 63 -10.2 13.6
04:25 1007 29.74 837 24.72 -4.5 23.9 65 -10.1 13.7
04:30 1007 29.74 837 24.72 -4.3 24.2 64 -10.1 13.9
04:35 1007 29.74 837 24.72 -4.1 24.6 64 -10 14.1
04:40 1007 29.74 837 24.72 -3.8 25.1 62 -10 14
04:45 1007 29.74 836 24.69 -4.1 24.6 63 -10.2 13.6
04:50 1007 29.74 836 24.69 -4 24.8 62 -10.2 13.6
04:55 1007 29.74 836 24.69 -3.9 25 63 -10 14
05:00 1007 29.74 836 24.69 -4 24.9 63 -10.1 13.9
05:05 1007 29.74 836 24.69 -4.2 24.4 63 -10.2 13.7
05:10 1007 29.74 836 24.69 -3.9 25 62 -10.2 13.7
05:15 1007 29.74 836 24.69 -3.6 25.5 61 -10 14
05:20 1007 29.74 836 24.69 -3.6 25.5 61 -10.1 13.8
05:25 1007 29.74 836 24.69 -3.5 25.8 61 -9.9 14.1
05:30 1007 29.74 836 24.69 -3.6 25.5 61 -10 14
05:35 1007 29.74 836 24.69 -3.6 25.5 60 -10.2 13.6
05:40 1007 29.74 836 24.69 -3.9 25 62 -10.2 13.7
05:45 1007 29.74 836 24.69 -3.9 25 60 -10.5 13.1
05:50 1007 29.74 836 24.69 -3.8 25.2 60 -10.4 13.3
05:55 1007 29.74 836 24.69 -3.7 25.4 61 -10.1 13.7
06:00 1007 29.74 836 24.69 -3.4 26 59 -10.3 13.5
06:05 1007 29.74 836 24.69 -3 26.6 59 -9.9 14.2
06:10 1007 29.74 836 24.69 -3.2 26.2 59 -10.2 13.7
06:15 1007 29.74 836 24.69 -3.2 26.3 59 -10.2 13.7
06:20 1007 29.74 836 24.69 -3.8 25.2 61 -10.2 13.6
06:25 1007 29.74 836 24.69 -3.4 25.9 60 -10 13.9
06:30 1007 29.74 836 24.69 -3.7 25.4 62 -9.9 14.2
06:35 1007 29.74 836 24.69 -4.7 23.5 65 -10.3 13.5
06:40 1007 29.74 836 24.69 -4.7 23.5 65 -10.3 13.4
06:45 1007 29.74 836 24.69 -4.5 24 64 -10.2 13.6
06:50 1007 29.74 837 24.72 -4.2 24.4 62 -10.4 13.2
06:55 1007 29.74 837 24.72 -4 24.8 61 -10.4 13.3
07:00 1007 29.74 837 24.72 -4.3 24.3 65 -10 14.1
07:05 1007 29.74 837 24.72 -4.9 23.2 67 -10.2 13.7
07:10 1007 29.74 837 24.72 -5.2 22.6 68 -10.2 13.6
07:15 1007 29.74 837 24.72 -5.1 22.8 66 -10.6 12.9
07:20 1008 29.77 837 24.72 -4.4 24.1 62 -10.6 13
07:25 1008 29.77 837 24.72 -4.3 24.3 63 -10.4 13.4
07:30 1008 29.77 837 24.72 -4.2 24.5 62 -10.3 13.4
07:35 1008 29.77 837 24.72 -4.4 24.1 64 -10.3 13.4
07:40 1008 29.77 837 24.72 -4.4 24.1 62 -10.7 12.8
07:45 1008 29.77 837 24.72 -4.1 24.7 62 -10.4 13.3
07:50 1008 29.77 837 24.72 -3.7 25.3 60 -10.5 13.2
07:55 1008 29.77 837 24.72 -3.5 25.7 60 -10.2 13.7
08:00 1008 29.77 837 24.72 -3.7 25.3 63 -9.8 14.4
08:05 1008 29.77 837 24.72 -3.5 25.7 61 -9.9 14.1
08:10 1008 29.77 837 24.72 -3.8 25.2 63 -9.9 14.2
08:15 1008 29.77 837 24.72 -4 24.8 64 -9.9 14.2
08:20 1008 29.77 837 24.72 -4.4 24.1 65 -10 14.1
08:25 1008 29.77 837 24.72 -4.8 23.4 67 -10 13.9
08:30 1008 29.77 837 24.72 -4.4 24.2 65 -10 13.9
08:35 1008 29.77 837 24.72 -3.8 25.1 63 -9.9 14.2
08:40 1008 29.77 837 24.72 -4.2 24.5 65 -9.9 14.2
08:45 1008 29.77 837 24.72 -3.8 25.2 61 -10.2 13.7
08:50 1008 29.77 837 24.72 -3.1 26.4 59 -10 14.1
08:55 1008 29.77 837 24.72 -2.8 26.9 58 -10 14
09:00 1008 29.77 837 24.72 -2.3 27.9 56 -9.9 14.2
09:05 1008 29.77 837 24.72 -1.9 28.5 55 -9.7 14.5
09:10 1008 29.77 837 24.72 -1.4 29.5 53 -9.9 14.2
09:15 1008 29.77 837 24.72 -1.3 29.7 53 -9.6 14.7
09:20 1008 29.77 837 24.72 -1.1 30 53 -9.4 15
09:25 1008 29.77 837 24.72 -0.9 30.3 52 -9.6 14.7
09:30 1008 29.77 837 24.72 -0.3 31.4 50 -9.4 15.1
09:35 1008 29.77 837 24.72 0 32.1 50 -9.1 15.6
09:40 1008 29.77 837 24.72 0.2 32.4 50 -9.1 15.6
09:45 1008 29.77 837 24.72 0.3 32.5 50 -8.9 16
09:50 1008 29.77 837 24.72 0.3 32.5 50 -9 15.8
09:55 1008 29.77 837 24.72 0.2 32.4 50 -9 15.9
10:00 1008 29.77 837 24.72 0.2 32.4 53 -8.3 17
10:05 1008 29.77 837 24.72 0.2 32.4 53 -8.2 17.3
10:10 1008 29.77 837 24.72 0.7 33.3 54 -7.7 18.2
10:15 1008 29.77 837 24.72 1.3 34.4 50 -8 17.7
10:20 1008 29.77 837 24.72 1.8 35.2 49 -7.9 17.8
10:25 1008 29.77 837 24.72 2 35.5 47 -8.1 17.4
10:30 1008 29.77 837 24.72 2.1 35.7 49 -7.5 18.4
10:35 1008 29.77 837 24.72 2 35.6 48 -8 17.6
10:40 1008 29.77 837 24.72 2.1 35.8 47 -8 17.6
10:45 1008 29.77 837 24.72 2.3 36.2 46 -8.2 17.2
10:50 1008 29.77 837 24.72 2.4 36.4 46 -8.1 17.4
10:55 1008 29.77 837 24.72 2.6 36.6 46 -7.9 17.7
11:00 1008 29.77 837 24.72 2.5 36.4 46 -7.9 17.8
11:05 1008 29.77 837 24.72 2.4 36.4 47 -7.8 17.9
11:10 1008 29.77 837 24.72 2.6 36.7 46 -7.9 17.9
11:15 1008 29.77 837 24.72 2.5 36.6 47 -7.6 18.3
11:20 1008 29.77 837 24.72 2.6 36.7 47 -7.6 18.3
11:25 1008 29.77 837 24.72 2.9 37.3 47 -7.4 18.6
11:30 1008 29.77 837 24.72 3.1 37.5 46 -7.4 18.6
11:35 1008 29.77 837 24.72 3.5 38.4 45 -7.2 19.1
11:40 1008 29.77 837 24.72 3.9 39 43 -7.5 18.4
11:45 1008 29.77 837 24.72 4.7 40.5 41 -7.4 18.7
11:50 1008 29.77 837 24.72 4.5 40.1 43 -7 19.3
11:55 1008 29.77 837 24.72 3.9 39 46 -6.7 20
12:00 1008 29.77 837 24.72 3.2 37.8 46 -7.4 18.7
12:05 1008 29.77 837 24.72 3 37.5 40 -9.3 15.3
12:10 1008 29.77 837 24.72 3.3 37.9 39 -9.5 15
12:15 1008 29.77 837 24.72 3 37.4 39 -9.8 14.4
12:20 1008 29.77 837 24.72 2.8 37 40 -9.5 14.9
12:25 1008 29.77 837 24.72 2.7 36.8 42 -8.9 16
12:30 1008 29.77 837 24.72 2.6 36.6 44 -8.6 16.5
12:35 1008 29.77 837 24.72 2.5 36.5 44 -8.6 16.5
12:40 1008 29.77 837 24.72 2.8 37 43 -8.5 16.7
12:45 1008 29.77 837 24.72 3.1 37.6 40 -9.2 15.4
12:50 1008 29.77 837 24.72 3.4 38.1 40 -9 15.8
12:55 1008 29.77 837 24.72 3.5 38.3 39 -9.1 15.6
13:00 1008 29.77 837 24.72 3.7 38.7 38 -9.4 15
13:05 1008 29.77 837 24.72 3.9 39 37 -9.6 14.8
13:10 1008 29.77 837 24.72 4.1 39.3 37 -9.3 15.2
13:15 1008 29.77 837 24.72 4.1 39.3 38 -8.9 15.9
13:20 1008 29.77 837 24.72 3.9 39.1 38 -9.1 15.6
13:25 1008 29.77 837 24.72 3.7 38.6 39 -9 15.8
13:30 1008 29.77 837 24.72 3.6 38.5 40 -8.8 16.1
13:35 1008 29.77 837 24.72 3.4 38.2 42 -8.4 16.8
13:40 1008 29.77 837 24.72 3.5 38.3 42 -8.2 17.3
13:45 1008 29.77 837 24.72 3.8 38.9 42 -8 17.5
13:50 1008 29.77 837 24.72 3.7 38.6 43 -7.8 18
13:55 1008 29.77 837 24.72 3.5 38.2 42 -8.3 17
14:00 1008 29.77 837 24.72 3.4 38.1 43 -7.9 17.8
14:05 1008 29.77 837 24.72 3.3 38 43 -8.2 17.2
14:10 1008 29.77 837 24.72 3.6 38.4 43 -7.8 17.9
14:15 1008 29.77 837 24.72 3.5 38.4 40 -8.8 16.1
14:20 1008 29.77 837 24.72 3.5 38.3 41 -8.4 16.8
14:25 1008 29.77 837 24.72 3.7 38.6 41 -8.3 17.1
14:30 1008 29.77 837 24.72 3.6 38.5 42 -8 17.5
14:35 1008 29.77 837 24.72 3.6 38.4 41 -8.5 16.7
14:40 1008 29.77 837 24.72 3.6 38.4 43 -8 17.6
14:45 1008 29.77 837 24.72 3.9 39 42 -7.8 17.9
14:50 1008 29.77 837 24.72 3.5 38.3 46 -7.1 19.2
14:55 1008 29.77 837 24.72 3 37.4 49 -6.8 19.8
15:00 1008 29.77 837 24.72 2.4 36.4 50 -6.8 19.7
15:05 1008 29.77 837 24.72 2.3 36.1 51 -6.9 19.6
15:10 1008 29.77 837 24.72 2.3 36.1 49 -7.3 18.8
15:15 1008 29.77 837 24.72 2.3 36.1 48 -7.5 18.4
15:20 1008 29.77 837 24.72 2.3 36.1 48 -7.6 18.4
15:25 1008 29.77 837 24.72 2.3 36.1 48 -7.6 18.3
15:30 1008 29.77 838 24.75 2.3 36.1 47 -7.9 17.8
15:35 1008 29.77 838 24.75 2.6 36.7 45 -8.2 17.2
15:40 1008 29.77 838 24.75 2.6 36.6 46 -7.9 17.8
15:45 1008 29.77 838 24.75 2.2 36 46 -8.3 17.1
15:50 1008 29.77 838 24.75 2.2 35.9 45 -8.7 16.4
15:55 1008 29.77 838 24.75 2.1 35.7 44 -8.9 16
16:00 1008 29.77 838 24.75 2 35.6 44 -9.1 15.6
16:05 1008 29.77 838 24.75 2 35.6 43 -9.3 15.3
16:10 1008 29.77 838 24.75 1.9 35.4 44 -9.2 15.4
16:15 1009 29.8 838 24.75 1.7 35.1 43 -9.6 14.7
16:20 1009 29.8 838 24.75 1.6 35 44 -9.5 14.9
16:25 1009 29.8 838 24.75 1.5 34.7 44 -9.3 15.2
16:30 1009 29.8 838 24.75 1.4 34.5 45 -9.3 15.2
16:35 1009 29.8 838 24.75 1.3 34.3 45 -9.5 14.9
16:40 1009 29.8 838 24.75 1.2 34.1 45 -9.5 15
16:45 1009 29.8 838 24.75 1.2 34.2 45 -9.5 14.9
16:50 1009 29.8 838 24.75 1.2 34.2 45 -9.5 14.8
16:55 1009 29.8 838 24.75 1.1 34 46 -9.4 15.1
17:00 1009 29.8 838 24.75 1 33.9 46 -9.4 15
17:05 1009 29.8 838 24.75 1 33.9 45 -9.6 14.7
17:10 1009 29.8 838 24.75 1.1 34 45 -9.6 14.7
17:15 1009 29.8 838 24.75 1.1 34.1 45 -9.6 14.7
17:20 1009 29.8 838 24.75 1 33.8 45 -9.5 14.9
17:25 1009 29.8 838 24.75 1.1 34 46 -9.3 15.2
17:30 1009 29.8 838 24.75 1.2 34.2 44 -9.7 14.5
17:35 1009 29.8 838 24.75 1.5 34.6 44 -9.5 15
17:40 1009 29.8 839 24.78 1.5 34.6 45 -9.2 15.4
17:45 1009 29.8 839 24.78 1.4 34.5 46 -8.9 16
17:50 1010 29.83 839 24.78 1.3 34.3 47 -8.7 16.3
17:55 1010 29.83 839 24.78 1.2 34.1 47 -9 15.8
18:00 1010 29.83 839 24.78 1.2 34.2 47 -8.8 16.1
18:05 1010 29.83 839 24.78 1.1 34 48 -8.6 16.6
18:10 1010 29.83 839 24.78 1 33.8 50 -8.4 17
18:15 1010 29.83 839 24.78 0.9 33.7 51 -8.1 17.5
18:20 1010 29.83 839 24.78 0.9 33.6 55 -7.1 19.3
18:25 1010 29.83 839 24.78 0.8 33.4 55 -7.2 19
18:30 1010 29.83 839 24.78 0.7 33.3 55 -7.2 19
18:35 1010 29.83 839 24.78 0.7 33.2 54 -7.7 18.2
18:40 1010 29.83 839 24.78 1 33.8 50 -8.2 17.2
18:45 1010 29.83 839 24.78 1.2 34.1 50 -8.1 17.5
18:50 1010 29.83 839 24.78 1.2 34.2 49 -8.3 17.1
18:55 1010 29.83 839 24.78 1.3 34.3 52 -7.5 18.6
19:00 1010 29.83 839 24.78 0.9 33.7 51 -8.2 17.3
19:05 1010 29.83 839 24.78 1 33.7 50 -8.2 17.2
19:10 1010 29.83 839 24.78 1.1 34.1 49 -8.4 17
19:15 1010 29.83 840 24.81 1.1 34 53 -7.5 18.5
19:20 1010 29.83 840 24.81 0.9 33.6 54 -7.5 18.5
19:25 1010 29.83 840 24.81 0.8 33.5 55 -7.3 18.9
19:30 1010 29.83 840 24.81 0.8 33.4 54 -7.5 18.6
19:35 1011 29.85 840 24.81 0.9 33.6 55 -7.2 19.1
19:40 1011 29.85 840 24.81 0.8 33.5 56 -6.9 19.6
19:45 1011 29.85 840 24.81 0.6 33.1 57 -6.9 19.6
19:50 1011 29.85 840 24.81 0.5 32.9 57 -7 19.5
19:55 1011 29.85 840 24.81 0.5 32.8 58 -6.8 19.7
20:00 1011 29.85 840 24.81 0.4 32.8 58 -6.8 19.7
20:05 1011 29.85 840 24.81 0.6 33.1 56 -7.2 19.1
20:10 1011 29.85 840 24.81 0.7 33.3 58 -6.6 20.1
20:15 1011 29.85 840 24.81 0.6 33 62 -5.8 21.5
20:20 1011 29.85 840 24.81 0.3 32.5 64 -5.7 21.8
20:25 1011 29.85 840 24.81 0.2 32.4 62 -6.3 20.7
20:30 1011 29.85 840 24.81 0.2 32.4 61 -6.4 20.5
20:35 1011 29.85 840 24.81 0.2 32.3 61 -6.4 20.5
20:40 1011 29.85 840 24.81 0.1 32.2 59 -7 19.4
20:45 1011 29.85 840 24.81 0.3 32.5 56 -7.4 18.6
20:50 1011 29.85 840 24.81 0.2 32.3 62 -6.4 20.5
20:55 1011 29.85 840 24.81 -0.4 31.3 61 -6.9 19.6
21:00 1011 29.85 840 24.81 -0.5 31.1 62 -6.9 19.5
21:05 1011 29.85 840 24.81 -0.4 31.2 59 -7.4 18.6
21:10 1011 29.85 840 24.81 -0.1 31.8 56 -7.9 17.7
21:15 1011 29.85 840 24.81 0.1 32.2 56 -7.7 18.2
21:20 1011 29.85 840 24.81 -0 32 56 -7.8 18
21:25 1011 29.85 840 24.81 -0.1 31.9 56 -7.8 17.9
21:30 1011 29.85 840 24.81 -0.2 31.7 56 -7.9 17.7
21:35 1011 29.85 840 24.81 -0.4 31.3 57 -7.9 17.8
21:40 1011 29.85 840 24.81 -0.4 31.2 55 -8.4 16.9
21:45 1011 29.85 840 24.81 -0.2 31.7 53 -8.6 16.5
21:50 1011 29.85 840 24.81 -0.3 31.5 54 -8.5 16.6
21:55 1011 29.85 840 24.81 -0.6 30.9 54 -8.7 16.4
22:00 1011 29.85 840 24.81 -0.7 30.8 55 -8.6 16.4
22:05 1011 29.85 840 24.81 -0.6 31 54 -8.7 16.3
22:10 1011 29.85 840 24.81 -0.4 31.4 54 -8.5 16.6
22:15 1011 29.85 840 24.81 -0.3 31.4 55 -8.4 16.9
22:20 1011 29.85 840 24.81 -0.4 31.3 55 -8.4 16.9
22:25 1011 29.85 841 24.83 -0.5 31.1 55 -8.4 16.9
22:30 1011 29.85 841 24.83 -0.6 30.9 52 -9.2 15.4
22:35 1011 29.85 841 24.83 -0.3 31.4 52 -8.9 15.9
22:40 1011 29.85 841 24.83 -0.3 31.5 55 -8.2 17.3
22:45 1011 29.85 841 24.83 -0.3 31.4 57 -7.9 17.8
22:50 1012 29.88 841 24.83 -0.5 31.1 59 -7.5 18.5
22:55 1012 29.88 841 24.83 -0.9 30.4 59 -8 17.6
23:00 1012 29.88 841 24.83 -1.1 30.1 57 -8.5 16.6
23:05 1012 29.88 841 24.83 -1.2 29.9 55 -9.1 15.6
23:10 1012 29.88 841 24.83 -1.1 30 54 -9.3 15.3
23:15 1012 29.88 841 24.83 -1.1 29.9 54 -9.3 15.3
23:20 1012 29.88 841 24.83 -1.1 30 52 -9.7 14.5
23:25 1012 29.88 841 24.83 -0.9 30.4 51 -9.7 14.5
23:30 1012 29.88 841 24.83 -0.9 30.3 50 -10 14
23:35 1012 29.88 841 24.83 -0.8 30.5 50 -10.1 13.8
23:40 1012 29.88 841 24.83 -0.8 30.5 49 -10.4 13.3
23:45 1012 29.88 841 24.83 -0.8 30.6 49 -10.2 13.6
23:50 1012 29.88 841 24.83 -1 30.2 49 -10.5 13.1
23:55 1012 29.88 841 24.83 -0.9 30.4 49 -10.4 13.3
24:00 1012 29.88 841 24.83 -0.8 30.6 46 -10.9 12.4